Time;durP1;ratioP1;P1;durP2;ratioP2;P2;SDS_P1;SDS_P2;PMS_P1;PMS_P2;Temp;Humidity;BMP_temperature;BMP_pressure;BME280_temperature;BME280_humidity;BME280_pressure;Samples;Min_cycle;Max_cycle;Signal;HPM_P1;HPM_P2
2023/06/05 00:00:06;;;;;;;2.80;1.30;;;19.00;40.70;;;;;;2553664;54;20959;-70
2023/06/05 00:02:33;;;;;;;3.33;1.60;;;18.90;40.70;;;;;;2553819;53;21083;-70
2023/06/05 00:05:01;;;;;;;2.90;1.50;;;18.90;40.70;;;;;;2554746;54;21440;-70
2023/06/05 00:07:27;;;;;;;2.80;1.37;;;18.80;41.00;;;;;;2547526;53;20959;-70
2023/06/05 00:09:54;;;;;;;3.70;1.58;;;18.80;41.10;;;;;;2313309;54;21873;-72
2023/06/05 00:12:23;;;;;;;2.70;1.10;;;18.80;41.00;;;;;;2553112;54;20955;-72
2023/06/05 00:14:51;;;;;;;2.83;0.98;;;18.70;40.90;;;;;;2553183;53;21461;-72
2023/06/05 00:17:19;;;;;;;2.20;1.00;;;18.70;40.90;;;;;;2521247;54;20955;-73
2023/06/05 00:19:49;;;;;;;3.37;1.00;;;18.60;40.90;;;;;;2311734;54;20963;-69
2023/06/05 00:22:17;;;;;;;2.67;1.40;;;18.60;41.20;;;;;;2553058;54;21027;-70
2023/06/05 00:24:44;;;;;;;2.78;1.10;;;18.60;41.10;;;;;;2553757;54;21063;-70
2023/06/05 00:27:20;;;;;;;2.08;0.90;;;18.50;41.10;;;;;;2315426;53;20953;-73
2023/06/05 00:29:46;;;;;;;2.60;1.17;;;18.50;41.10;;;;;;2312989;53;21051;-71
2023/06/05 00:32:18;;;;;;;2.45;1.02;;;18.40;41.00;;;;;;2314649;53;20926;-70
2023/06/05 00:34:49;;;;;;;2.05;0.80;;;18.40;41.20;;;;;;2551777;53;20990;-71
2023/06/05 00:37:25;;;;;;;2.50;1.10;;;18.30;41.10;;;;;;2550056;53;21064;-70
2023/06/05 00:39:55;;;;;;;2.10;0.80;;;18.30;41.40;;;;;;2527151;53;21347;-70
2023/06/05 00:42:26;;;;;;;;;;;18.30;41.30;;;;;;2552661;53;21049;-71
2023/06/05 00:44:53;;;;;;;2.10;0.88;;;18.30;41.40;;;;;;2298107;54;20101;-69
2023/06/05 00:47:31;;;;;;;;;;;;;;;;;;;;;
2023/06/05 00:50:05;;;;;;;2.33;0.98;;;18.20;41.20;;;;;;2521603;54;21021;-70
2023/06/05 00:52:32;;;;;;;2.92;1.40;;;18.10;41.20;;;;;;2302333;53;21017;-70
2023/06/05 00:54:58;;;;;;;2.37;1.00;;;18.10;41.40;;;;;;2294753;53;20954;-70
2023/06/05 00:57:46;;;;;;;2.60;1.10;;;18.00;41.40;;;;;;2287419;54;21123;-70
2023/06/05 01:00:15;;;;;;;2.10;0.98;;;18.00;41.40;;;;;;2307687;53;21373;-68
2023/06/05 01:02:48;;;;;;;2.65;1.02;;;18.00;41.40;;;;;;2524605;54;21021;-72
2023/06/05 01:05:17;;;;;;;2.37;0.98;;;17.90;41.50;;;;;;2543120;53;21222;-70
2023/06/05 01:08:19;;;;;;;;;;;;;;;;;;;;;
2023/06/05 01:10:56;;;;;;;2.45;1.10;;;17.80;41.70;;;;;;2521245;54;21489;-70
2023/06/05 01:13:31;;;;;;;2.22;1.12;;;17.80;41.80;;;;;;2289492;55;21027;-69
2023/06/05 01:16:22;;;;;;;3.00;1.48;;;17.70;41.60;;;;;;2519542;54;21665;-69
2023/06/05 01:30:46;;;;;;;2.37;1.20;;;17.70;41.60;;;;;;2485388;54;20979;-71
2023/06/05 01:34:02;;;;;;;2.80;0.70;;;17.50;41.40;;;;;;2519163;54;20976;-69
2023/06/05 01:37:26;;;;;;;1.92;0.93;;;17.50;41.40;;;;;;2516821;54;21037;-69
2023/06/05 01:40:06;;;;;;;2.10;1.05;;;17.40;41.80;;;;;;2285654;55;21018;-72
2023/06/05 01:46:32;;;;;;;2.47;1.15;;;17.20;41.80;;;;;;2491764;54;21285;-72
2023/06/05 01:50:52;;;;;;;;;;;;;;;;;;;;;
2023/06/05 01:54:52;;;;;;;3.00;1.12;;;17.20;42.40;;;;;;2196893;56;20986;-70
2023/06/05 01:58:04;;;;;;;2.78;1.10;;;17.10;42.20;;;;;;2424788;54;21568;-70
2023/06/05 02:01:08;;;;;;;3.05;1.05;;;17.10;42.30;;;;;;2287301;55;20969;-70
2023/06/05 02:04:21;;;;;;;3.40;1.50;;;17.00;42.40;;;;;;2401016;57;21457;-68
2023/06/05 02:13:30;;;;;;;3.22;1.48;;;17.00;42.40;;;;;;2408014;57;21457;-69
2023/06/05 02:51:24;;;;;;;1.70;0.70;;;16.50;41.90;;;;;;2512777;54;22913;-70
2023/06/05 02:55:44;;;;;;;2.40;0.88;;;16.30;42.30;;;;;;2465751;55;21787;-70
2023/06/05 02:59:02;;;;;;;1.92;0.82;;;16.30;42.60;;;;;;2337762;58;22484;-71
2023/06/05 03:06:53;;;;;;;2.97;1.30;;;16.20;42.80;;;;;;2053021;59;21084;-69
2023/06/05 03:10:11;;;;;;;2.58;0.95;;;16.10;42.90;;;;;;2277503;59;21066;-69
2023/06/05 03:17:19;;;;;;;;;;;;;;;;;;;;;
2023/06/05 03:43:34;;;;;;;;;;;;;;;;;;;;;
2023/06/05 03:47:09;;;;;;;2.20;0.80;;;15.70;42.90;;;;;;2455120;55;21072;-70
2023/06/05 03:50:48;;;;;;;2.70;1.15;;;15.60;43.00;;;;;;2481916;54;20970;-73
2023/06/05 03:59:55;;;;;;;2.90;1.20;;;15.50;43.70;;;;;;2409908;55;21070;-70
2023/06/05 04:17:42;;;;;;;;;;;;;;;;;;;;;
2023/06/05 04:21:59;;;;;;;2.85;1.12;;;15.40;43.80;;;;;;2329327;58;21460;-72
2023/06/05 04:24:54;;;;;;;3.55;1.20;;;15.40;43.90;;;;;;2367064;57;21004;-71
2023/06/05 04:28:38;;;;;;;2.87;1.30;;;15.40;43.90;;;;;;2367188;57;20961;-70
2023/06/05 04:31:40;;;;;;;2.75;1.30;;;15.40;44.40;;;;;;2370287;57;21053;-72
2023/06/05 04:47:32;;;;;;;2.45;1.12;;;15.40;44.30;;;;;;2372435;58;21197;-71
2023/06/05 04:51:05;;;;;;;1.90;0.90;;;15.40;44.80;;;;;;2367966;58;21075;-72
2023/06/05 05:55:27;;;;;;;;;;;;;;;;;;;;;
2023/06/05 07:02:27;;;;;;;2.42;0.90;;;18.60;45.90;;;;;;2253244;56;21553;-71
2023/06/05 07:04:54;;;;;;;4.40;1.35;;;18.70;45.80;;;;;;2492089;54;20950;-71
2023/06/05 07:07:24;;;;;;;4.12;1.40;;;18.70;46.10;;;;;;2276733;56;21513;-71
2023/06/05 07:09:53;;;;;;;3.50;1.65;;;18.80;46.30;;;;;;2488732;55;21016;-71
2023/06/05 07:12:22;;;;;;;4.53;1.87;;;18.80;46.40;;;;;;2260622;56;21032;-71
2023/06/05 07:14:48;;;;;;;3.47;1.52;;;18.90;46.50;;;;;;2261143;55;20953;-72
2023/06/05 07:17:15;;;;;;;3.03;1.58;;;19.00;46.50;;;;;;2260110;56;21033;-71
2023/06/05 07:19:42;;;;;;;3.30;1.67;;;19.10;46.50;;;;;;2489315;55;21477;-71
2023/06/05 07:22:08;;;;;;;4.15;1.80;;;19.10;46.50;;;;;;2488116;55;21333;-71
2023/06/05 07:24:35;;;;;;;2.83;1.48;;;19.30;46.60;;;;;;2271918;56;21334;-73
2023/06/05 07:27:02;;;;;;;4.05;1.70;;;19.30;47.10;;;;;;2269141;55;20992;-74
2023/06/05 07:29:28;;;;;;;3.87;1.85;;;19.40;46.50;;;;;;2259364;56;21072;-70
2023/06/05 07:31:55;;;;;;;5.37;1.80;;;19.50;46.50;;;;;;2260663;55;20933;-71
2023/06/05 07:34:22;;;;;;;2.62;1.30;;;19.60;46.50;;;;;;2489254;55;21473;-71
2023/06/05 07:36:52;;;;;;;4.87;1.60;;;19.70;46.50;;;;;;2260530;56;20929;-70
2023/06/05 07:39:19;;;;;;;2.75;1.30;;;19.80;46.60;;;;;;2489017;55;20945;-72
2023/06/05 07:41:46;;;;;;;3.20;1.48;;;19.90;46.60;;;;;;2260634;55;20940;-71
2023/06/05 07:44:14;;;;;;;3.10;1.55;;;20.00;46.60;;;;;;2488742;55;20969;-71
2023/06/05 07:46:45;;;;;;;2.70;1.20;;;20.00;46.40;;;;;;2261321;56;20933;-71
2023/06/05 07:49:11;;;;;;;3.20;1.60;;;20.10;46.40;;;;;;2489099;55;20925;-71
2023/06/05 07:51:37;;;;;;;3.83;1.20;;;20.20;46.30;;;;;;2260759;56;21427;-72
2023/06/05 07:54:07;;;;;;;2.80;1.35;;;20.30;46.30;;;;;;2260465;56;21447;-72
2023/06/05 07:56:34;;;;;;;3.17;1.40;;;20.50;46.50;;;;;;2488917;55;20968;-72
2023/06/05 07:59:02;;;;;;;3.33;1.60;;;20.50;46.50;;;;;;2275142;55;21150;-72
2023/06/05 08:01:36;;;;;;;3.42;1.48;;;20.60;46.40;;;;;;2495449;55;21537;-71
2023/06/05 08:04:07;;;;;;;3.25;1.40;;;20.70;46.50;;;;;;2486765;55;21035;-72
2023/06/05 08:06:37;;;;;;;3.28;1.40;;;20.80;46.40;;;;;;2489167;55;20937;-73
2023/06/05 08:09:04;;;;;;;3.22;1.30;;;20.80;46.20;;;;;;2489334;55;20937;-72
2023/06/05 08:11:31;;;;;;;3.15;1.60;;;20.90;46.30;;;;;;2260121;56;21659;-73
2023/06/05 08:13:58;;;;;;;4.28;1.70;;;21.00;46.30;;;;;;2489376;55;21012;-71
2023/06/05 08:16:25;;;;;;;2.95;1.35;;;21.10;46.30;;;;;;2487784;55;21540;-72
2023/06/05 08:18:52;;;;;;;3.17;1.77;;;21.20;46.30;;;;;;2261380;56;21363;-72
2023/06/05 08:21:20;;;;;;;2.70;1.50;;;21.30;46.30;;;;;;2489680;55;21028;-72
2023/06/05 08:23:46;;;;;;;3.00;1.60;;;21.40;46.40;;;;;;2490026;55;20982;-72
2023/06/05 08:26:12;;;;;;;3.03;1.60;;;21.50;46.40;;;;;;2260587;56;21767;-72
2023/06/05 08:28:39;;;;;;;2.90;1.52;;;21.50;46.20;;;;;;2489769;55;20961;-73
2023/06/05 08:31:13;;;;;;;3.35;1.70;;;21.60;46.10;;;;;;2261732;56;20917;-72
2023/06/05 08:33:47;;;;;;;3.33;1.70;;;21.70;46.10;;;;;;2484776;55;20989;-73
2023/06/05 08:36:25;;;;;;;3.05;1.50;;;21.80;45.90;;;;;;2468999;55;21045;-72
2023/06/05 08:55:43;;;;;;;;;;;;;;;;;;;;;
2023/06/05 08:59:03;;;;;;;;;;;;;;;;;;;;;
2023/06/05 10:38:05;;;;;;;;;;;;;;;;;;;;;
2023/06/05 10:54:06;;;;;;;2.60;0.93;;;25.60;43.80;;;;;;2486256;54;21187;-74
2023/06/05 10:57:06;;;;;;;2.45;1.20;;;26.10;42.30;;;;;;2455182;55;21014;-74
2023/06/05 11:04:55;;;;;;;2.35;0.93;;;26.60;42.10;;;;;;2419835;55;21027;-73
2023/06/05 11:48:08;;;;;;;3.10;0.80;;;26.90;41.50;;;;;;2488288;53;28286;-75
2023/06/05 12:28:50;;;;;;;2.53;0.93;;;28.20;40.20;;;;;;2474987;54;26658;-74
2023/06/05 12:39:06;;;;;;;2.75;1.20;;;28.90;38.70;;;;;;2083299;61;20995;-74
2023/06/05 12:42:43;;;;;;;;;;;;;;;;;;;;;
2023/06/05 12:54:57;;;;;;;2.62;1.20;;;29.30;38.40;;;;;;2215563;60;21087;-73
2023/06/05 12:59:24;;;;;;;2.62;1.30;;;29.30;37.90;;;;;;2236077;61;21033;-74
2023/06/05 13:18:44;;;;;;;;;;;;;;;;;;;;;
2023/06/05 13:41:21;;;;;;;;;;;;;;;;;;;;;
2023/06/05 13:56:15;;;;;;;3.85;1.48;;;30.30;36.70;;;;;;2395121;56;20964;-75
2023/06/05 14:01:38;;;;;;;3.90;1.37;;;30.40;36.60;;;;;;2443356;55;21005;-76
2023/06/05 14:06:42;;;;;;;;;;;;;;;;;;;;;
2023/06/05 14:25:51;;;;;;;5.68;1.92;;;30.50;35.30;;;;;;2266853;56;21114;-75
2023/06/05 14:29:40;;;;;;;;;;;;;;;;;;;;;
2023/06/05 14:48:29;;;;;;;3.90;1.83;;;30.40;35.30;;;;;;2474333;55;21007;-75
2023/06/05 15:08:56;;;;;;;2.60;1.50;;;30.60;34.90;;;;;;2448006;55;20975;-73
2023/06/05 15:12:36;;;;;;;3.17;1.77;;;30.50;34.10;;;;;;2441704;55;21056;-74
2023/06/05 15:35:19;;;;;;;;;;;;;;;;;;;;;
2023/06/05 15:38:28;;;;;;;2.75;1.37;;;30.40;34.20;;;;;;2264901;56;21057;-75
2023/06/05 15:41:45;;;;;;;3.10;1.70;;;30.40;33.20;;;;;;2476512;55;21027;-73
2023/06/05 15:45:27;;;;;;;;;;;;;;;;;;;;;
2023/06/05 15:48:38;;;;;;;;;;;;;;;;;;;;;
2023/06/05 15:53:22;;;;;;;;;;;;;;;;;;;;;
2023/06/05 16:38:59;;;;;;;;;;;;;;;;;;;;;
2023/06/05 16:54:54;;;;;;;3.78;1.80;;;29.90;31.10;;;;;;2445282;55;21044;-74
2023/06/05 17:21:35;;;;;;;2.70;1.40;;;29.80;31.60;;;;;;2394069;57;21022;-74
2023/06/05 17:24:53;;;;;;;2.75;1.00;;;29.70;30.50;;;;;;2476257;55;21008;-75
2023/06/05 17:31:52;;;;;;;2.37;1.10;;;29.60;30.20;;;;;;2477600;55;21864;-75
2023/06/05 17:59:39;;;;;;;1.77;0.80;;;29.20;29.90;;;;;;2352813;58;20992;-74
2023/06/05 18:02:42;;;;;;;3.33;1.15;;;29.20;29.90;;;;;;2366909;57;21648;-75
2023/06/05 18:24:35;;;;;;;2.33;1.05;;;29.10;30.20;;;;;;2365901;57;21149;-75
2023/06/05 18:28:25;;;;;;;1.80;0.55;;;29.10;30.50;;;;;;2466633;55;21487;-73
2023/06/05 18:58:46;;;;;;;2.42;0.70;;;29.40;30.10;;;;;;2252075;56;21103;-76
2023/06/05 19:02:28;;;;;;;2.37;0.60;;;29.40;30.10;;;;;;2485594;55;21273;-73
2023/06/05 19:05:29;;;;;;;1.60;0.68;;;28.90;29.90;;;;;;2485139;55;21026;-75
2023/06/05 19:24:56;;;;;;;1.67;0.60;;;28.60;30.00;;;;;;2455058;55;20994;-73
2023/06/05 20:05:21;;;;;;;;;;;;;;;;;;;;;
2023/06/05 20:15:12;;;;;;;;;;;;;;;;;;;;;
2023/06/05 20:51:00;;;;;;;1.77;0.60;;;25.80;31.20;;;;;;2435602;55;21962;-73
2023/06/05 21:01:42;;;;;;;;;;;;;;;;;;;;;
2023/06/05 21:12:44;;;;;;;1.02;0.40;;;24.10;32.40;;;;;;2366946;57;21029;-71
2023/06/05 21:16:25;;;;;;;1.45;0.60;;;23.60;32.40;;;;;;2389074;56;21013;-72
2023/06/05 21:20:01;;;;;;;1.70;0.65;;;23.50;32.70;;;;;;2303045;58;21130;-71
2023/06/05 22:28:24;;;;;;;1.55;0.50;;;23.20;32.70;;;;;;2581463;52;22030;-70
2023/06/05 22:30:51;;;;;;;1.55;0.65;;;21.60;33.30;;;;;;2605147;52;20946;-71
2023/06/05 22:33:18;;;;;;;1.92;0.88;;;21.50;33.60;;;;;;2604868;52;21022;-71
2023/06/05 22:35:44;;;;;;;1.85;0.80;;;21.40;33.70;;;;;;2604366;52;21030;-71
2023/06/05 22:38:11;;;;;;;1.85;0.80;;;21.30;33.90;;;;;;2604414;52;20919;-71
2023/06/05 22:40:39;;;;;;;1.62;0.73;;;21.20;34.00;;;;;;2605179;52;20923;-71
2023/06/05 22:43:05;;;;;;;2.75;0.95;;;21.20;34.10;;;;;;2355438;53;21171;-70
2023/06/05 22:45:31;;;;;;;2.10;0.90;;;21.10;34.10;;;;;;2605200;52;20970;-71
2023/06/05 22:48:00;;;;;;;2.08;0.90;;;21.00;34.20;;;;;;2356172;53;20907;-73
2023/06/05 22:50:27;;;;;;;2.42;0.98;;;20.90;34.30;;;;;;2605792;52;20927;-71
2023/06/05 22:52:54;;;;;;;2.45;1.00;;;20.90;34.50;;;;;;2356147;53;21026;-71
2023/06/05 22:55:20;;;;;;;1.98;0.88;;;20.80;34.60;;;;;;2602743;52;20938;-71
2023/06/05 22:57:47;;;;;;;2.30;1.17;;;20.80;34.80;;;;;;2355885;53;21002;-70
2023/06/05 23:00:13;;;;;;;2.25;1.00;;;20.70;35.00;;;;;;2355670;53;21464;-71
2023/06/05 23:02:42;;;;;;;2.20;0.98;;;20.70;35.20;;;;;;2604916;52;21022;-71
2023/06/05 23:05:10;;;;;;;2.35;1.00;;;20.70;35.20;;;;;;2604769;52;21678;-71
2023/06/05 23:07:37;;;;;;;4.07;1.23;;;20.60;35.30;;;;;;2605029;52;20934;-71
2023/06/05 23:10:07;;;;;;;2.30;1.10;;;20.50;35.30;;;;;;2604470;52;21017;-71
2023/06/05 23:12:33;;;;;;;2.97;1.10;;;20.50;35.40;;;;;;2604352;52;20903;-71
2023/06/05 23:14:59;;;;;;;3.35;1.10;;;20.40;35.50;;;;;;2605052;52;20923;-72
2023/06/05 23:17:26;;;;;;;2.33;1.00;;;20.50;35.70;;;;;;2354119;53;21065;-73
2023/06/05 23:19:52;;;;;;;2.08;0.90;;;20.30;35.60;;;;;;2604130;52;20934;-71
2023/06/05 23:22:19;;;;;;;2.45;1.10;;;20.30;35.80;;;;;;2355087;53;20939;-73
2023/06/05 23:24:45;;;;;;;2.60;1.20;;;20.20;35.90;;;;;;2357248;53;20962;-71
2023/06/05 23:27:12;;;;;;;1.73;0.80;;;20.20;36.00;;;;;;2354584;53;20934;-71
2023/06/05 23:29:38;;;;;;;1.85;0.90;;;20.20;36.00;;;;;;2347726;54;20927;-70
2023/06/05 23:32:05;;;;;;;2.70;1.00;;;20.10;36.00;;;;;;2601376;52;20992;-71
2023/06/05 23:34:32;;;;;;;2.72;1.23;;;20.10;36.10;;;;;;2347871;53;20954;-71
2023/06/05 23:37:00;;;;;;;2.30;1.10;;;20.00;36.20;;;;;;2604742;52;21459;-70
2023/06/05 23:39:26;;;;;;;2.62;1.00;;;20.00;36.40;;;;;;2590328;53;20983;-71
2023/06/05 23:41:56;;;;;;;2.50;0.98;;;20.00;37.10;;;;;;2603266;52;20915;-70
2023/06/05 23:44:26;;;;;;;3.62;1.17;;;19.90;36.60;;;;;;2346443;54;20963;-71
2023/06/05 23:46:54;;;;;;;2.12;0.80;;;19.90;36.70;;;;;;2603606;52;20915;-70
2023/06/05 23:49:21;;;;;;;2.10;1.10;;;19.80;36.60;;;;;;2354165;53;20971;-72
2023/06/05 23:51:51;;;;;;;3.03;1.40;;;19.80;36.70;;;;;;2590898;52;21742;-71
2023/06/05 23:54:22;;;;;;;2.75;1.25;;;19.70;37.00;;;;;;2602655;52;20903;-71
2023/06/05 23:56:48;;;;;;;2.28;0.95;;;19.70;37.10;;;;;;2355675;53;21688;-70
2023/06/05 23:59:17;;;;;;;2.75;1.37;;;19.60;37.00;;;;;;2591992;52;20966;-70
